sensor_id;sensor_type;location;lat;lon;timestamp;P1;durP1;ratioP1;P2;durP2;ratioP2
920;SDS011;447;51.332;6.778;2023-05-21T00:00:44;7.57;;;6.83;;
920;SDS011;447;51.332;6.778;2023-05-21T00:03:12;7.70;;;6.87;;
920;SDS011;447;51.332;6.778;2023-05-21T00:05:41;8.10;;;7.30;;
920;SDS011;447;51.332;6.778;2023-05-21T00:08:09;7.30;;;6.60;;
920;SDS011;447;51.332;6.778;2023-05-21T00:10:35;7.60;;;6.80;;
920;SDS011;447;51.332;6.778;2023-05-21T00:13:06;7.63;;;6.90;;
920;SDS011;447;51.332;6.778;2023-05-21T00:15:33;7.40;;;6.70;;
920;SDS011;447;51.332;6.778;2023-05-21T00:18:01;10.03;;;7.40;;
920;SDS011;447;51.332;6.778;2023-05-21T00:20:32;7.43;;;6.63;;
920;SDS011;447;51.332;6.778;2023-05-21T00:23:03;8.10;;;7.30;;
920;SDS011;447;51.332;6.778;2023-05-21T00:25:29;7.90;;;7.07;;
920;SDS011;447;51.332;6.778;2023-05-21T00:28:00;7.53;;;6.77;;
920;SDS011;447;51.332;6.778;2023-05-21T00:30:29;7.63;;;6.87;;
920;SDS011;447;51.332;6.778;2023-05-21T00:32:59;7.80;;;7.10;;
920;SDS011;447;51.332;6.778;2023-05-21T00:35:32;7.20;;;6.50;;
920;SDS011;447;51.332;6.778;2023-05-21T00:38:00;7.50;;;6.80;;
920;SDS011;447;51.332;6.778;2023-05-21T00:40:29;8.37;;;7.50;;
920;SDS011;447;51.332;6.778;2023-05-21T00:42:57;6.77;;;6.10;;
920;SDS011;447;51.332;6.778;2023-05-21T00:45:26;8.17;;;7.37;;
920;SDS011;447;51.332;6.778;2023-05-21T00:47:56;8.20;;;7.40;;
920;SDS011;447;51.332;6.778;2023-05-21T00:50:27;7.93;;;7.13;;
920;SDS011;447;51.332;6.778;2023-05-21T00:53:00;8.50;;;7.03;;
920;SDS011;447;51.332;6.778;2023-05-21T00:55:29;8.23;;;7.30;;
920;SDS011;447;51.332;6.778;2023-05-21T00:57:59;7.23;;;6.63;;
920;SDS011;447;51.332;6.778;2023-05-21T01:00:32;7.60;;;6.43;;
920;SDS011;447;51.332;6.778;2023-05-21T01:03:01;7.70;;;7.00;;
920;SDS011;447;51.332;6.778;2023-05-21T01:05:31;7.70;;;7.00;;
920;SDS011;447;51.332;6.778;2023-05-21T01:07:57;7.00;;;6.37;;
920;SDS011;447;51.332;6.778;2023-05-21T01:10:28;7.23;;;6.53;;
920;SDS011;447;51.332;6.778;2023-05-21T01:12:56;7.77;;;7.00;;
920;SDS011;447;51.332;6.778;2023-05-21T01:15:23;8.63;;;6.60;;
920;SDS011;447;51.332;6.778;2023-05-21T01:17:50;7.33;;;6.63;;
920;SDS011;447;51.332;6.778;2023-05-21T01:20:21;7.83;;;7.03;;
920;SDS011;447;51.332;6.778;2023-05-21T01:25:23;7.77;;;6.97;;
920;SDS011;447;51.332;6.778;2023-05-21T01:27:49;7.77;;;7.07;;
920;SDS011;447;51.332;6.778;2023-05-21T01:30:16;7.43;;;6.67;;
920;SDS011;447;51.332;6.778;2023-05-21T01:32:47;8.50;;;7.20;;
920;SDS011;447;51.332;6.778;2023-05-21T01:35:34;7.50;;;6.80;;
920;SDS011;447;51.332;6.778;2023-05-21T01:38:16;7.00;;;5.87;;
920;SDS011;447;51.332;6.778;2023-05-21T01:40:55;7.50;;;6.70;;
920;SDS011;447;51.332;6.778;2023-05-21T01:43:32;7.27;;;6.40;;
920;SDS011;447;51.332;6.778;2023-05-21T01:46:01;8.20;;;7.50;;
920;SDS011;447;51.332;6.778;2023-05-21T01:48:33;6.40;;;5.80;;
920;SDS011;447;51.332;6.778;2023-05-21T01:51:01;7.07;;;5.30;;
920;SDS011;447;51.332;6.778;2023-05-21T01:53:31;6.53;;;5.90;;
920;SDS011;447;51.332;6.778;2023-05-21T01:56:00;7.63;;;6.83;;
920;SDS011;447;51.332;6.778;2023-05-21T01:58:29;7.00;;;6.30;;
920;SDS011;447;51.332;6.778;2023-05-21T02:00:58;6.53;;;5.93;;
920;SDS011;447;51.332;6.778;2023-05-21T02:03:27;8.63;;;7.13;;
920;SDS011;447;51.332;6.778;2023-05-21T02:05:55;7.50;;;6.10;;
920;SDS011;447;51.332;6.778;2023-05-21T02:08:23;6.23;;;5.63;;
920;SDS011;447;51.332;6.778;2023-05-21T02:10:53;6.60;;;5.90;;
920;SDS011;447;51.332;6.778;2023-05-21T02:13:22;6.43;;;5.80;;
920;SDS011;447;51.332;6.778;2023-05-21T02:15:53;6.40;;;5.80;;
920;SDS011;447;51.332;6.778;2023-05-21T02:18:23;6.20;;;5.60;;
920;SDS011;447;51.332;6.778;2023-05-21T02:20:55;6.90;;;6.13;;
920;SDS011;447;51.332;6.778;2023-05-21T02:23:25;7.53;;;6.63;;
920;SDS011;447;51.332;6.778;2023-05-21T02:25:54;7.10;;;5.67;;
920;SDS011;447;51.332;6.778;2023-05-21T02:28:24;6.53;;;5.73;;
920;SDS011;447;51.332;6.778;2023-05-21T02:30:56;7.47;;;6.77;;
920;SDS011;447;51.332;6.778;2023-05-21T02:33:22;6.20;;;5.57;;
920;SDS011;447;51.332;6.778;2023-05-21T02:35:52;6.50;;;5.90;;
920;SDS011;447;51.332;6.778;2023-05-21T02:38:18;6.20;;;5.50;;
920;SDS011;447;51.332;6.778;2023-05-21T02:40:50;6.17;;;5.30;;
920;SDS011;447;51.332;6.778;2023-05-21T02:43:20;7.70;;;6.33;;
920;SDS011;447;51.332;6.778;2023-05-21T02:45:46;6.80;;;6.10;;
920;SDS011;447;51.332;6.778;2023-05-21T02:48:15;6.00;;;5.40;;
920;SDS011;447;51.332;6.778;2023-05-21T02:50:43;6.03;;;5.43;;
920;SDS011;447;51.332;6.778;2023-05-21T02:53:11;6.13;;;5.43;;
920;SDS011;447;51.332;6.778;2023-05-21T02:55:41;5.90;;;5.40;;
920;SDS011;447;51.332;6.778;2023-05-21T02:58:09;6.20;;;5.60;;
920;SDS011;447;51.332;6.778;2023-05-21T03:00:37;6.27;;;5.67;;
920;SDS011;447;51.332;6.778;2023-05-21T03:03:04;6.87;;;6.03;;
920;SDS011;447;51.332;6.778;2023-05-21T03:05:30;7.10;;;5.60;;
920;SDS011;447;51.332;6.778;2023-05-21T03:07:56;5.77;;;5.20;;
920;SDS011;447;51.332;6.778;2023-05-21T03:10:22;5.90;;;5.40;;
920;SDS011;447;51.332;6.778;2023-05-21T03:12:50;7.00;;;5.80;;
920;SDS011;447;51.332;6.778;2023-05-21T03:15:17;5.30;;;4.90;;
920;SDS011;447;51.332;6.778;2023-05-21T03:17:51;6.03;;;5.43;;
920;SDS011;447;51.332;6.778;2023-05-21T03:20:18;4.97;;;4.47;;
920;SDS011;447;51.332;6.778;2023-05-21T03:22:46;5.50;;;5.00;;
920;SDS011;447;51.332;6.778;2023-05-21T03:25:14;5.90;;;4.97;;
920;SDS011;447;51.332;6.778;2023-05-21T03:27:42;4.40;;;4.00;;
920;SDS011;447;51.332;6.778;2023-05-21T03:30:29;6.37;;;4.97;;
920;SDS011;447;51.332;6.778;2023-05-21T03:33:24;6.50;;;5.03;;
920;SDS011;447;51.332;6.778;2023-05-21T03:35:52;5.80;;;4.97;;
920;SDS011;447;51.332;6.778;2023-05-21T03:38:21;5.70;;;5.20;;
920;SDS011;447;51.332;6.778;2023-05-21T03:40:50;5.80;;;5.30;;
920;SDS011;447;51.332;6.778;2023-05-21T03:43:18;5.43;;;4.93;;
920;SDS011;447;51.332;6.778;2023-05-21T03:45:47;5.30;;;4.80;;
920;SDS011;447;51.332;6.778;2023-05-21T03:48:33;5.53;;;5.03;;
920;SDS011;447;51.332;6.778;2023-05-21T03:51:00;5.13;;;4.67;;
920;SDS011;447;51.332;6.778;2023-05-21T03:53:26;5.80;;;5.20;;
920;SDS011;447;51.332;6.778;2023-05-21T03:55:52;5.17;;;4.73;;
920;SDS011;447;51.332;6.778;2023-05-21T03:58:23;5.97;;;5.30;;
920;SDS011;447;51.332;6.778;2023-05-21T04:00:54;5.00;;;4.50;;
920;SDS011;447;51.332;6.778;2023-05-21T04:03:20;6.53;;;4.90;;
920;SDS011;447;51.332;6.778;2023-05-21T04:05:51;5.20;;;4.80;;
920;SDS011;447;51.332;6.778;2023-05-21T04:08:21;5.13;;;4.73;;
920;SDS011;447;51.332;6.778;2023-05-21T04:10:49;5.73;;;4.47;;
920;SDS011;447;51.332;6.778;2023-05-21T04:13:15;5.27;;;4.80;;
920;SDS011;447;51.332;6.778;2023-05-21T04:15:44;5.37;;;4.97;;
920;SDS011;447;51.332;6.778;2023-05-21T04:18:13;5.60;;;5.00;;
920;SDS011;447;51.332;6.778;2023-05-21T04:20:49;6.37;;;5.10;;
920;SDS011;447;51.332;6.778;2023-05-21T04:23:20;5.03;;;4.60;;
920;SDS011;447;51.332;6.778;2023-05-21T04:25:49;5.60;;;5.00;;
920;SDS011;447;51.332;6.778;2023-05-21T04:28:18;5.53;;;4.60;;
920;SDS011;447;51.332;6.778;2023-05-21T04:30:49;5.60;;;4.80;;
920;SDS011;447;51.332;6.778;2023-05-21T04:33:20;5.47;;;4.97;;
920;SDS011;447;51.332;6.778;2023-05-21T04:35:49;5.03;;;4.53;;
920;SDS011;447;51.332;6.778;2023-05-21T04:38:16;5.53;;;5.00;;
920;SDS011;447;51.332;6.778;2023-05-21T04:40:51;5.33;;;4.80;;
920;SDS011;447;51.332;6.778;2023-05-21T04:43:17;4.80;;;4.33;;
920;SDS011;447;51.332;6.778;2023-05-21T04:45:56;5.23;;;4.73;;
920;SDS011;447;51.332;6.778;2023-05-21T04:48:23;6.00;;;5.40;;
920;SDS011;447;51.332;6.778;2023-05-21T04:50:53;5.23;;;4.67;;
920;SDS011;447;51.332;6.778;2023-05-21T04:53:22;6.30;;;4.83;;
920;SDS011;447;51.332;6.778;2023-05-21T04:55:48;5.30;;;4.80;;
920;SDS011;447;51.332;6.778;2023-05-21T04:58:14;5.43;;;4.93;;
920;SDS011;447;51.332;6.778;2023-05-21T05:00:46;5.17;;;4.77;;
920;SDS011;447;51.332;6.778;2023-05-21T05:03:14;5.70;;;4.77;;
920;SDS011;447;51.332;6.778;2023-05-21T05:05:43;4.50;;;4.10;;
920;SDS011;447;51.332;6.778;2023-05-21T05:08:09;6.13;;;4.80;;
920;SDS011;447;51.332;6.778;2023-05-21T05:10:35;5.30;;;4.80;;
920;SDS011;447;51.332;6.778;2023-05-21T05:13:01;5.60;;;5.10;;
920;SDS011;447;51.332;6.778;2023-05-21T05:15:28;6.53;;;4.90;;
920;SDS011;447;51.332;6.778;2023-05-21T05:17:56;7.00;;;4.80;;
920;SDS011;447;51.332;6.778;2023-05-21T05:20:22;4.70;;;4.30;;
920;SDS011;447;51.332;6.778;2023-05-21T05:22:53;4.73;;;4.33;;
920;SDS011;447;51.332;6.778;2023-05-21T05:25:19;5.23;;;4.73;;
920;SDS011;447;51.332;6.778;2023-05-21T05:27:45;5.03;;;4.53;;
920;SDS011;447;51.332;6.778;2023-05-21T05:30:13;4.67;;;4.27;;
920;SDS011;447;51.332;6.778;2023-05-21T05:32:39;4.97;;;4.57;;
920;SDS011;447;51.332;6.778;2023-05-21T05:35:07;5.47;;;4.90;;
920;SDS011;447;51.332;6.778;2023-05-21T05:37:36;4.87;;;4.47;;
920;SDS011;447;51.332;6.778;2023-05-21T05:40:07;5.73;;;5.17;;
920;SDS011;447;51.332;6.778;2023-05-21T05:42:33;5.00;;;4.50;;
920;SDS011;447;51.332;6.778;2023-05-21T05:45:03;5.30;;;4.77;;
920;SDS011;447;51.332;6.778;2023-05-21T05:47:29;5.17;;;4.67;;
920;SDS011;447;51.332;6.778;2023-05-21T05:49:55;6.00;;;5.47;;
920;SDS011;447;51.332;6.778;2023-05-21T05:52:24;5.87;;;5.33;;
920;SDS011;447;51.332;6.778;2023-05-21T05:54:50;5.10;;;4.63;;
920;SDS011;447;51.332;6.778;2023-05-21T05:57:16;7.53;;;5.70;;
920;SDS011;447;51.332;6.778;2023-05-21T05:59:44;4.57;;;4.17;;
920;SDS011;447;51.332;6.778;2023-05-21T06:02:10;5.97;;;5.30;;
920;SDS011;447;51.332;6.778;2023-05-21T06:04:41;5.77;;;5.27;;
920;SDS011;447;51.332;6.778;2023-05-21T06:07:07;4.80;;;4.40;;
920;SDS011;447;51.332;6.778;2023-05-21T06:09:35;6.07;;;5.53;;
920;SDS011;447;51.332;6.778;2023-05-21T06:12:04;6.00;;;5.20;;
920;SDS011;447;51.332;6.778;2023-05-21T06:14:31;5.63;;;4.73;;
920;SDS011;447;51.332;6.778;2023-05-21T06:16:57;5.40;;;4.90;;
920;SDS011;447;51.332;6.778;2023-05-21T06:19:26;5.40;;;4.60;;
920;SDS011;447;51.332;6.778;2023-05-21T06:21:52;5.57;;;5.07;;
920;SDS011;447;51.332;6.778;2023-05-21T06:24:18;5.60;;;5.10;;
920;SDS011;447;51.332;6.778;2023-05-21T06:26:44;4.67;;;4.27;;
920;SDS011;447;51.332;6.778;2023-05-21T06:29:10;5.40;;;4.90;;
920;SDS011;447;51.332;6.778;2023-05-21T06:31:39;4.97;;;4.57;;
920;SDS011;447;51.332;6.778;2023-05-21T06:34:07;6.23;;;5.63;;
920;SDS011;447;51.332;6.778;2023-05-21T06:36:37;5.43;;;4.93;;
920;SDS011;447;51.332;6.778;2023-05-21T06:39:02;5.40;;;4.60;;
920;SDS011;447;51.332;6.778;2023-05-21T06:41:29;6.00;;;5.40;;
920;SDS011;447;51.332;6.778;2023-05-21T06:44:02;6.07;;;5.30;;
920;SDS011;447;51.332;6.778;2023-05-21T06:47:00;6.10;;;5.50;;
920;SDS011;447;51.332;6.778;2023-05-21T06:49:27;5.60;;;5.10;;
920;SDS011;447;51.332;6.778;2023-05-21T06:51:55;5.77;;;5.20;;
920;SDS011;447;51.332;6.778;2023-05-21T06:54:21;8.00;;;6.50;;
920;SDS011;447;51.332;6.778;2023-05-21T06:56:48;5.60;;;5.10;;
920;SDS011;447;51.332;6.778;2023-05-21T06:59:15;6.20;;;5.60;;
920;SDS011;447;51.332;6.778;2023-05-21T07:01:43;6.70;;;6.10;;
920;SDS011;447;51.332;6.778;2023-05-21T07:04:09;5.77;;;5.27;;
920;SDS011;447;51.332;6.778;2023-05-21T07:06:39;6.23;;;5.60;;
920;SDS011;447;51.332;6.778;2023-05-21T07:09:05;7.20;;;6.50;;
920;SDS011;447;51.332;6.778;2023-05-21T07:11:33;6.77;;;6.10;;
920;SDS011;447;51.332;6.778;2023-05-21T07:14:01;6.53;;;5.93;;
920;SDS011;447;51.332;6.778;2023-05-21T07:16:30;6.50;;;5.90;;
920;SDS011;447;51.332;6.778;2023-05-21T07:19:01;6.47;;;5.87;;
920;SDS011;447;51.332;6.778;2023-05-21T07:21:27;7.40;;;5.83;;
920;SDS011;447;51.332;6.778;2023-05-21T07:23:56;9.03;;;5.70;;
920;SDS011;447;51.332;6.778;2023-05-21T07:26:22;6.27;;;5.67;;
920;SDS011;447;51.332;6.778;2023-05-21T07:28:48;6.97;;;6.33;;
920;SDS011;447;51.332;6.778;2023-05-21T07:31:17;6.87;;;6.27;;
920;SDS011;447;51.332;6.778;2023-05-21T07:33:49;6.57;;;5.87;;
920;SDS011;447;51.332;6.778;2023-05-21T07:36:20;7.60;;;6.80;;
920;SDS011;447;51.332;6.778;2023-05-21T07:38:46;7.43;;;6.60;;
920;SDS011;447;51.332;6.778;2023-05-21T07:41:15;6.20;;;5.60;;
920;SDS011;447;51.332;6.778;2023-05-21T07:43:42;6.47;;;5.87;;
920;SDS011;447;51.332;6.778;2023-05-21T07:46:08;7.00;;;6.30;;
920;SDS011;447;51.332;6.778;2023-05-21T07:48:37;6.50;;;5.87;;
920;SDS011;447;51.332;6.778;2023-05-21T07:51:03;6.47;;;5.87;;
920;SDS011;447;51.332;6.778;2023-05-21T07:53:37;8.30;;;6.17;;
920;SDS011;447;51.332;6.778;2023-05-21T07:56:06;7.40;;;6.50;;
920;SDS011;447;51.332;6.778;2023-05-21T07:58:35;7.50;;;6.70;;
920;SDS011;447;51.332;6.778;2023-05-21T08:01:01;7.00;;;6.00;;
920;SDS011;447;51.332;6.778;2023-05-21T08:03:28;8.60;;;7.80;;
920;SDS011;447;51.332;6.778;2023-05-21T08:05:56;6.80;;;6.20;;
920;SDS011;447;51.332;6.778;2023-05-21T08:08:28;6.97;;;6.37;;
920;SDS011;447;51.332;6.778;2023-05-21T08:10:56;6.97;;;6.37;;
920;SDS011;447;51.332;6.778;2023-05-21T08:13:24;9.40;;;6.30;;
920;SDS011;447;51.332;6.778;2023-05-21T08:15:52;7.33;;;6.63;;
920;SDS011;447;51.332;6.778;2023-05-21T08:18:22;8.20;;;7.00;;
920;SDS011;447;51.332;6.778;2023-05-21T08:20:49;7.20;;;6.47;;
920;SDS011;447;51.332;6.778;2023-05-21T08:23:17;7.30;;;6.70;;
920;SDS011;447;51.332;6.778;2023-05-21T08:25:48;7.27;;;6.57;;
920;SDS011;447;51.332;6.778;2023-05-21T08:28:20;9.90;;;7.43;;
920;SDS011;447;51.332;6.778;2023-05-21T08:30:49;7.40;;;6.70;;
920;SDS011;447;51.332;6.778;2023-05-21T08:33:20;7.93;;;6.60;;
920;SDS011;447;51.332;6.778;2023-05-21T08:35:46;7.30;;;6.60;;
920;SDS011;447;51.332;6.778;2023-05-21T08:38:41;7.90;;;7.20;;
920;SDS011;447;51.332;6.778;2023-05-21T08:41:11;7.50;;;6.60;;
920;SDS011;447;51.332;6.778;2023-05-21T08:43:38;8.30;;;7.50;;
920;SDS011;447;51.332;6.778;2023-05-21T08:46:07;8.63;;;7.83;;
920;SDS011;447;51.332;6.778;2023-05-21T08:48:36;8.13;;;7.43;;
920;SDS011;447;51.332;6.778;2023-05-21T08:51:03;8.27;;;7.47;;
920;SDS011;447;51.332;6.778;2023-05-21T08:53:33;7.73;;;7.03;;
920;SDS011;447;51.332;6.778;2023-05-21T08:56:00;7.93;;;7.23;;
920;SDS011;447;51.332;6.778;2023-05-21T08:58:44;9.83;;;8.20;;
920;SDS011;447;51.332;6.778;2023-05-21T09:01:13;8.23;;;7.43;;
920;SDS011;447;51.332;6.778;2023-05-21T09:03:42;8.60;;;7.70;;
920;SDS011;447;51.332;6.778;2023-05-21T09:06:10;8.60;;;7.80;;
920;SDS011;447;51.332;6.778;2023-05-21T09:08:46;9.80;;;8.10;;
920;SDS011;447;51.332;6.778;2023-05-21T09:11:27;9.13;;;8.13;;
920;SDS011;447;51.332;6.778;2023-05-21T09:13:59;9.03;;;8.13;;
920;SDS011;447;51.332;6.778;2023-05-21T09:16:34;8.53;;;7.73;;
920;SDS011;447;51.332;6.778;2023-05-21T09:19:00;9.40;;;8.50;;
920;SDS011;447;51.332;6.778;2023-05-21T09:21:32;9.03;;;8.13;;
920;SDS011;447;51.332;6.778;2023-05-21T09:24:20;9.70;;;8.30;;
920;SDS011;447;51.332;6.778;2023-05-21T09:26:47;9.27;;;8.37;;
920;SDS011;447;51.332;6.778;2023-05-21T09:29:17;9.57;;;8.53;;
920;SDS011;447;51.332;6.778;2023-05-21T09:31:45;9.40;;;8.50;;
920;SDS011;447;51.332;6.778;2023-05-21T09:34:15;9.77;;;8.47;;
920;SDS011;447;51.332;6.778;2023-05-21T09:36:43;9.67;;;8.77;;
920;SDS011;447;51.332;6.778;2023-05-21T09:39:10;8.70;;;8.00;;
920;SDS011;447;51.332;6.778;2023-05-21T09:41:40;12.07;;;9.63;;
920;SDS011;447;51.332;6.778;2023-05-21T09:44:07;10.17;;;9.13;;
920;SDS011;447;51.332;6.778;2023-05-21T09:46:41;10.57;;;9.57;;
920;SDS011;447;51.332;6.778;2023-05-21T09:49:21;9.50;;;8.60;;
920;SDS011;447;51.332;6.778;2023-05-21T09:51:57;11.10;;;9.50;;
920;SDS011;447;51.332;6.778;2023-05-21T09:54:29;9.43;;;8.53;;
920;SDS011;447;51.332;6.778;2023-05-21T09:57:01;10.30;;;9.30;;
920;SDS011;447;51.332;6.778;2023-05-21T09:59:39;10.20;;;9.20;;
920;SDS011;447;51.332;6.778;2023-05-21T10:02:23;11.07;;;9.20;;
920;SDS011;447;51.332;6.778;2023-05-21T10:04:51;9.73;;;8.73;;
920;SDS011;447;51.332;6.778;2023-05-21T10:07:19;10.07;;;9.07;;
920;SDS011;447;51.332;6.778;2023-05-21T10:09:56;11.23;;;9.70;;
920;SDS011;447;51.332;6.778;2023-05-21T10:12:24;11.10;;;10.00;;
920;SDS011;447;51.332;6.778;2023-05-21T10:15:00;10.20;;;8.63;;
920;SDS011;447;51.332;6.778;2023-05-21T10:17:29;10.97;;;9.87;;
920;SDS011;447;51.332;6.778;2023-05-21T10:19:58;10.73;;;9.63;;
920;SDS011;447;51.332;6.778;2023-05-21T10:22:28;13.07;;;10.50;;
920;SDS011;447;51.332;6.778;2023-05-21T10:24:54;10.57;;;9.50;;
920;SDS011;447;51.332;6.778;2023-05-21T10:27:21;10.43;;;9.30;;
920;SDS011;447;51.332;6.778;2023-05-21T10:29:47;10.60;;;9.60;;
920;SDS011;447;51.332;6.778;2023-05-21T10:32:15;11.57;;;10.00;;
920;SDS011;447;51.332;6.778;2023-05-21T10:34:42;12.40;;;11.17;;
920;SDS011;447;51.332;6.778;2023-05-21T10:37:08;12.00;;;10.80;;
920;SDS011;447;51.332;6.778;2023-05-21T10:39:36;12.40;;;10.67;;
920;SDS011;447;51.332;6.778;2023-05-21T10:45:09;12.17;;;10.93;;
920;SDS011;447;51.332;6.778;2023-05-21T10:48:14;11.80;;;10.57;;
920;SDS011;447;51.332;6.778;2023-05-21T10:56:24;11.63;;;10.53;;
920;SDS011;447;51.332;6.778;2023-05-21T11:01:30;12.40;;;11.20;;
920;SDS011;447;51.332;6.778;2023-05-21T11:04:02;12.60;;;11.27;;
920;SDS011;447;51.332;6.778;2023-05-21T11:06:32;12.83;;;11.50;;
920;SDS011;447;51.332;6.778;2023-05-21T11:09:12;12.73;;;11.30;;
920;SDS011;447;51.332;6.778;2023-05-21T11:20:06;13.00;;;11.70;;
920;SDS011;447;51.332;6.778;2023-05-21T11:22:37;13.17;;;11.87;;
920;SDS011;447;51.332;6.778;2023-05-21T11:25:03;13.20;;;11.53;;
920;SDS011;447;51.332;6.778;2023-05-21T11:32:36;15.87;;;12.27;;
920;SDS011;447;51.332;6.778;2023-05-21T11:35:26;13.27;;;11.97;;
920;SDS011;447;51.332;6.778;2023-05-21T11:37:52;14.00;;;12.50;;
920;SDS011;447;51.332;6.778;2023-05-21T11:40:21;12.77;;;11.60;;
920;SDS011;447;51.332;6.778;2023-05-21T11:42:51;13.27;;;11.97;;
920;SDS011;447;51.332;6.778;2023-05-21T11:45:26;12.73;;;11.57;;
920;SDS011;447;51.332;6.778;2023-05-21T11:47:53;14.10;;;12.70;;
920;SDS011;447;51.332;6.778;2023-05-21T11:50:23;13.80;;;12.33;;
920;SDS011;447;51.332;6.778;2023-05-21T11:52:50;13.83;;;12.37;;
920;SDS011;447;51.332;6.778;2023-05-21T11:55:20;13.13;;;11.83;;
920;SDS011;447;51.332;6.778;2023-05-21T11:57:51;13.73;;;12.33;;
920;SDS011;447;51.332;6.778;2023-05-21T12:00:22;14.70;;;11.40;;
920;SDS011;447;51.332;6.778;2023-05-21T12:02:50;14.17;;;12.70;;
920;SDS011;447;51.332;6.778;2023-05-21T12:05:17;12.33;;;11.00;;
920;SDS011;447;51.332;6.778;2023-05-21T12:07:46;13.90;;;12.57;;
920;SDS011;447;51.332;6.778;2023-05-21T12:10:19;13.87;;;12.47;;
920;SDS011;447;51.332;6.778;2023-05-21T12:12:46;12.30;;;11.13;;
920;SDS011;447;51.332;6.778;2023-05-21T12:15:17;13.53;;;12.23;;
920;SDS011;447;51.332;6.778;2023-05-21T12:17:44;13.00;;;11.50;;
920;SDS011;447;51.332;6.778;2023-05-21T12:20:14;13.63;;;12.37;;
920;SDS011;447;51.332;6.778;2023-05-21T12:22:40;15.33;;;11.67;;
920;SDS011;447;51.332;6.778;2023-05-21T12:25:07;14.60;;;11.93;;
920;SDS011;447;51.332;6.778;2023-05-21T12:27:36;14.07;;;12.67;;
920;SDS011;447;51.332;6.778;2023-05-21T12:30:08;12.63;;;11.40;;
920;SDS011;447;51.332;6.778;2023-05-21T12:33:02;12.60;;;11.37;;
920;SDS011;447;51.332;6.778;2023-05-21T12:35:29;13.53;;;12.07;;
920;SDS011;447;51.332;6.778;2023-05-21T12:38:03;13.70;;;11.67;;
920;SDS011;447;51.332;6.778;2023-05-21T12:40:35;14.43;;;12.70;;
920;SDS011;447;51.332;6.778;2023-05-21T12:43:05;12.60;;;11.40;;
920;SDS011;447;51.332;6.778;2023-05-21T12:45:36;12.73;;;11.43;;
920;SDS011;447;51.332;6.778;2023-05-21T12:48:03;14.60;;;13.10;;
920;SDS011;447;51.332;6.778;2023-05-21T12:57:21;13.67;;;12.37;;
920;SDS011;447;51.332;6.778;2023-05-21T13:03:10;14.33;;;12.87;;
920;SDS011;447;51.332;6.778;2023-05-21T13:10:20;13.20;;;11.87;;
920;SDS011;447;51.332;6.778;2023-05-21T13:16:46;14.37;;;12.97;;
920;SDS011;447;51.332;6.778;2023-05-21T13:19:18;12.90;;;11.60;;
920;SDS011;447;51.332;6.778;2023-05-21T13:27:01;12.90;;;11.73;;
920;SDS011;447;51.332;6.778;2023-05-21T13:29:33;13.00;;;11.80;;
920;SDS011;447;51.332;6.778;2023-05-21T13:32:11;14.13;;;12.73;;
920;SDS011;447;51.332;6.778;2023-05-21T13:39:05;12.80;;;11.57;;
920;SDS011;447;51.332;6.778;2023-05-21T13:50:07;13.10;;;11.87;;
920;SDS011;447;51.332;6.778;2023-05-21T13:52:56;13.90;;;12.60;;
920;SDS011;447;51.332;6.778;2023-05-21T14:07:26;12.93;;;11.67;;
920;SDS011;447;51.332;6.778;2023-05-21T14:09:59;14.80;;;11.83;;
920;SDS011;447;51.332;6.778;2023-05-21T14:30:57;13.40;;;12.10;;
920;SDS011;447;51.332;6.778;2023-05-21T14:34:09;14.70;;;13.27;;
920;SDS011;447;51.332;6.778;2023-05-21T14:44:01;15.20;;;11.60;;
920;SDS011;447;51.332;6.778;2023-05-21T14:46:27;14.80;;;13.40;;
920;SDS011;447;51.332;6.778;2023-05-21T14:54:03;13.70;;;12.30;;
920;SDS011;447;51.332;6.778;2023-05-21T14:56:33;13.27;;;12.03;;
920;SDS011;447;51.332;6.778;2023-05-21T15:02:58;12.53;;;11.43;;
920;SDS011;447;51.332;6.778;2023-05-21T15:10:05;13.37;;;12.17;;
920;SDS011;447;51.332;6.778;2023-05-21T15:12:57;13.13;;;11.90;;
920;SDS011;447;51.332;6.778;2023-05-21T15:20:26;13.37;;;12.00;;
920;SDS011;447;51.332;6.778;2023-05-21T15:23:28;14.10;;;12.60;;
920;SDS011;447;51.332;6.778;2023-05-21T15:33:09;13.10;;;11.90;;
920;SDS011;447;51.332;6.778;2023-05-21T15:46:23;13.60;;;12.30;;
920;SDS011;447;51.332;6.778;2023-05-21T15:53:16;12.97;;;11.70;;
920;SDS011;447;51.332;6.778;2023-05-21T16:00:29;12.50;;;11.37;;
920;SDS011;447;51.332;6.778;2023-05-21T16:06:10;12.77;;;11.50;;
920;SDS011;447;51.332;6.778;2023-05-21T16:13:00;12.47;;;11.17;;
920;SDS011;447;51.332;6.778;2023-05-21T16:44:12;12.67;;;11.53;;
920;SDS011;447;51.332;6.778;2023-05-21T17:00:04;11.30;;;10.23;;
920;SDS011;447;51.332;6.778;2023-05-21T17:03:48;12.07;;;10.97;;
920;SDS011;447;51.332;6.778;2023-05-21T17:06:28;12.30;;;11.30;;
920;SDS011;447;51.332;6.778;2023-05-21T17:09:55;13.23;;;12.00;;
920;SDS011;447;51.332;6.778;2023-05-21T17:12:26;13.50;;;12.30;;
920;SDS011;447;51.332;6.778;2023-05-21T17:17:57;13.90;;;12.47;;
920;SDS011;447;51.332;6.778;2023-05-21T17:21:04;12.67;;;11.50;;
920;SDS011;447;51.332;6.778;2023-05-21T17:23:42;12.17;;;11.10;;
920;SDS011;447;51.332;6.778;2023-05-21T17:26:14;12.50;;;11.30;;
920;SDS011;447;51.332;6.778;2023-05-21T17:29:07;12.70;;;11.60;;
920;SDS011;447;51.332;6.778;2023-05-21T17:41:35;14.43;;;13.07;;
920;SDS011;447;51.332;6.778;2023-05-21T17:44:02;16.20;;;12.70;;
920;SDS011;447;51.332;6.778;2023-05-21T17:46:32;13.80;;;12.53;;
920;SDS011;447;51.332;6.778;2023-05-21T18:35:30;13.10;;;11.80;;
920;SDS011;447;51.332;6.778;2023-05-21T18:38:06;15.90;;;14.20;;
920;SDS011;447;51.332;6.778;2023-05-21T18:40:38;13.80;;;12.50;;
920;SDS011;447;51.332;6.778;2023-05-21T18:43:04;14.13;;;12.93;;
920;SDS011;447;51.332;6.778;2023-05-21T18:45:35;14.03;;;12.83;;
920;SDS011;447;51.332;6.778;2023-05-21T18:48:01;13.40;;;12.07;;
920;SDS011;447;51.332;6.778;2023-05-21T18:50:27;13.93;;;12.73;;
920;SDS011;447;51.332;6.778;2023-05-21T18:52:53;15.07;;;13.67;;
920;SDS011;447;51.332;6.778;2023-05-21T18:55:25;15.10;;;13.70;;
920;SDS011;447;51.332;6.778;2023-05-21T18:57:51;15.17;;;13.73;;
920;SDS011;447;51.332;6.778;2023-05-21T19:00:21;14.20;;;12.93;;
920;SDS011;447;51.332;6.778;2023-05-21T19:02:50;15.27;;;13.83;;
920;SDS011;447;51.332;6.778;2023-05-21T19:05:21;14.70;;;13.40;;
920;SDS011;447;51.332;6.778;2023-05-21T19:07:50;14.63;;;13.27;;
920;SDS011;447;51.332;6.778;2023-05-21T19:10:16;14.73;;;13.23;;
920;SDS011;447;51.332;6.778;2023-05-21T19:12:44;14.33;;;12.93;;
920;SDS011;447;51.332;6.778;2023-05-21T19:15:10;14.60;;;13.30;;
920;SDS011;447;51.332;6.778;2023-05-21T19:17:44;14.80;;;13.40;;
920;SDS011;447;51.332;6.778;2023-05-21T19:25:33;14.80;;;13.50;;
920;SDS011;447;51.332;6.778;2023-05-21T19:28:04;13.67;;;12.27;;
920;SDS011;447;51.332;6.778;2023-05-21T19:30:30;13.83;;;12.70;;
920;SDS011;447;51.332;6.778;2023-05-21T19:33:07;14.73;;;13.33;;
920;SDS011;447;51.332;6.778;2023-05-21T19:35:34;14.80;;;13.30;;
920;SDS011;447;51.332;6.778;2023-05-21T19:38:05;15.90;;;14.37;;
920;SDS011;447;51.332;6.778;2023-05-21T19:40:32;15.57;;;14.10;;
920;SDS011;447;51.332;6.778;2023-05-21T19:42:58;15.30;;;13.80;;
920;SDS011;447;51.332;6.778;2023-05-21T19:45:27;15.07;;;13.63;;
920;SDS011;447;51.332;6.778;2023-05-21T19:47:53;15.03;;;13.43;;
920;SDS011;447;51.332;6.778;2023-05-21T19:50:19;14.40;;;13.00;;
920;SDS011;447;51.332;6.778;2023-05-21T19:52:47;15.60;;;14.20;;
920;SDS011;447;51.332;6.778;2023-05-21T19:55:13;16.20;;;14.43;;
920;SDS011;447;51.332;6.778;2023-05-21T19:57:44;16.23;;;14.60;;
920;SDS011;447;51.332;6.778;2023-05-21T20:00:11;17.57;;;15.87;;
920;SDS011;447;51.332;6.778;2023-05-21T20:02:39;15.40;;;14.00;;
920;SDS011;447;51.332;6.778;2023-05-21T20:05:11;15.83;;;14.13;;
920;SDS011;447;51.332;6.778;2023-05-21T20:07:58;16.87;;;15.07;;
920;SDS011;447;51.332;6.778;2023-05-21T20:10:52;16.10;;;14.60;;
920;SDS011;447;51.332;6.778;2023-05-21T20:14:47;15.27;;;13.77;;
920;SDS011;447;51.332;6.778;2023-05-21T20:17:13;16.83;;;15.03;;
920;SDS011;447;51.332;6.778;2023-05-21T20:19:45;16.40;;;14.73;;